WEATHER DATA

YESTERDAY
Time Temp. Dewp. Hum. Wind dir Wind speed Wind gust Bar. 1h Prec. 24h Prec.
00:01 16.6 13.1 80 90 0.3 0.6 1029.2 0.0000 0.0000
00:10 16.5 13 80 90 0.3 1.4 1029.2 0.0000 0.0000
00:21 16.5 13.2 81 90 0.3 1.1 1029.1 0.0000 0.0000
00:31 16.3 12.8 80 90 0.3 0.6 1029.1 0.0000 0.0000
00:41 16.1 12.7 80 90 0.3 0.6 1029 0.0000 0.0000
00:50 15.9 12.6 81 90 0.6 1.1 1028.9 0.0000 0.0000
01:01 15.8 12.7 82 90 0.3 0.6 1028.7 0.0000 0.0000
01:11 15.7 12.6 82 90 0.3 0.6 1028.7 0.0000 0.0000
01:21 15.6 12.7 83 90 0.3 0.6 1028.5 0.0000 0.0000
01:31 15.6 12.7 83 90 0.3 0.6 1028.4 0.0000 0.0000
01:41 15.5 12.4 82 90 0.3 0.6 1028.3 0.0000 0.0000
01:51 15.4 12.5 83 90 0.3 0.6 1028.2 0.0000 0.0000
02:01 15.3 12.6 84 90 0.3 0.6 1028.1 0.0000 0.0000
02:10 15.2 12.2 82 90 0.3 0.6 1028.1 0.0000 0.0000
02:20 15.1 12.1 82 90 0.3 0.6 1028.2 0.0000 0.0000
02:30 14.8 11.8 82 90 0.3 1.1 1028.3 0.0000 0.0000
02:41 14.6 11.6 82 90 0.3 1.1 1028.3 0.0000 0.0000
02:51 14.4 11.6 83 67 0.6 1.1 1028.3 0.0000 0.0000
03:00 14.3 11.6 84 70 0.6 1.1 1028.2 0.0000 0.0000
03:11 14.1 11.3 83 67 0.6 1.1 1028.2 0.0000 0.0000
03:21 14 11.3 84 65 0.6 1.1 1028.1 0.0000 0.0000
03:31 13.9 11.2 84 62 0.6 1.1 1028.2 0.0000 0.0000
03:41 13.9 11.4 85 90 0.3 0.6 1028.1 0.0000 0.0000
03:51 13.9 11.4 85 90 0.3 0.6 1028.1 0.0000 0.0000
04:01 14.1 11.8 86 90 0.3 0.6 1028 0.0000 0.0000
04:11 14.2 11.9 86 90 0.3 0.6 1027.9 0.0000 0.0000
04:22 14.4 12.1 86 90 0.3 0.6 1028 0.0000 0.0000
04:31 14.6 12.3 86 90 0.3 0.6 1028.1 0.0000 0.0000
04:41 14.8 12.5 86 90 0.3 0.6 1028.2 0.0000 0.0000
04:51 15 12.9 87 90 0.3 0.6 1028.3 0.0000 0.0000
05:02 15.2 13.1 87 90 0.3 0.6 1028.3 0.0000 0.0000
05:12 15.3 13 86 90 0.3 0.6 1028.3 0.0000 0.0000
05:21 15.4 13.1 86 90 0.3 0.6 1028.5 0.0000 0.0000
05:32 15.5 13.2 86 90 0.3 0.6 1028.6 0.0000 0.0000
05:42 15.6 13.3 86 90 0.3 0.6 1028.7 0.0000 0.0000
05:52 15.7 13.4 86 90 0.3 0.6 1028.8 0.0000 0.0000
06:01 15.8 13.5 86 90 0.3 0.6 1028.8 0.0000 0.0000
06:12 15.8 13.5 86 90 0.3 0.6 1028.9 0.0000 0.0000
06:25 15.9 13.4 85 90 0.3 0.6 1029 0.0000 0.0000
06:35 16 13.7 86 90 0.3 0.6 1029.2 0.0000 0.0000
06:45 16.2 13.9 86 90 0.3 0.6 1029.3 0.0000 0.0000
07:00 16.5 14 85 90 0.3 0.6 1029.5 0.0000 0.0000
07:10 16.8 14.3 85 90 0.3 0.6 1029.8 0.0000 0.0000
07:20 17.1 14.4 84 90 0.3 1.1 1029.8 0.0000 0.0000
07:35 17.7 14.6 82 90 0.3 0.6 1029.8 0.0000 0.0000
07:45 18 14.7 81 90 0.3 0.6 1029.8 0.0000 0.0000
07:55 18.4 14.9 80 90 0.3 1.1 1029.8 0.0000 0.0000
08:05 18.7 14.8 78 90 0.3 0.6 1029.8 0.0000 0.0000
08:16 19 14.9 77 90 0.3 1.1 1029.9 0.0000 0.0000
08:26 19.4 15.3 77 90 0.3 0.6 1030 0.0000 0.0000
08:35 19.6 14.8 74 90 0.6 1.4 1029.9 0.0000 0.0000
08:47 19.9 15.1 74 106 0.6 1.7 1029.9 0.0000 0.0000
08:57 20.3 15.1 72 90 0.3 1.1 1029.9 0.0000 0.0000
09:07 21.1 15.6 71 90 0.3 1.7 1029.8 0.0000 0.0000
09:17 21.4 15.3 68 90 0.6 1.7 1029.7 0.0000 0.0000
09:27 21.9 15.7 68 90 0.3 1.4 1029.5 0.0000 0.0000
09:38 22.5 15.8 66 90 0.3 1.7 1029.4 0.0000 0.0000
09:57 23.3 16.1 64 90 0.6 1.9 1029.3 0.0000 0.0000
10:08 23.5 15.8 62 90 0.6 1.7 1029.2 0.0000 0.0000
10:18 23.8 15.8 61 90 1.1 2.5 1029.2 0.0000 0.0000
10:37 24.7 16.2 59 90 0.6 1.9 1028.9 0.0000 0.0000
10:48 25 16.4 59 73 0.6 1.7 1028.8 0.0000 0.0000
11:08 26.1 16.6 56 75 0.6 1.4 1028.4 0.0000 0.0000
11:18 26.5 16.7 55 282 1.1 3.6 1028.3 0.0000 0.0000
11:28 26.8 16.7 54 303 0.6 1.9 1028 0.0000 0.0000
11:38 27.1 16.7 53 315 0.6 1.7 1027.7 0.0000 0.0000
11:54 27.3 16.3 51 45 0.3 1.4 1027.4 0.0000 0.0000
12:03 27.5 15.8 49 76 1.1 2.5 1027.2 0.0000 0.0000
12:13 27.9 15.6 47 57 0.6 2.5 1026.8 0.0000 0.0000
12:23 28.3 16.2 48 45 0.6 2.5 1026.7 0.0000 0.0000
12:34 28.6 15.9 46 73 0.6 2.5 1026.5 0.0000 0.0000
12:53 29.2 15.3 43 71 0.6 1.4 1026 0.0000 0.0000
13:24 30 14.1 38 90 0.6 1.7 1025.3 0.0000 0.0000
13:59 30.5 13.8 36 69 0.6 1.9 1024.5 0.0000 0.0000
14:09 30.9 13.7 35 296 0.6 1.7 1024.2 0.0000 0.0000
14:19 31 12.4 32 90 0.6 1.7 1024 0.0000 0.0000
14:29 31.1 13.4 34 45 0.6 5 1023.8 0.0000 0.0000
14:39 31.1 12.9 33 78 1.1 2.5 1023.6 0.0000 0.0000
14:50 31.2 12.1 31 315 0.6 3.1 1023.4 0.0000 0.0000
15:00 31.2 11.6 30 90 0.6 1.9 1023.2 0.0000 0.0000
15:19 31.4 12.7 32 270 0.3 2.5 1023 0.0000 0.0000
15:30 31.4 11.2 29 90 0.6 1.9 1022.8 0.0000 0.0000
15:40 31.3 11.7 30 291 1.1 3.6 1022.7 0.0000 0.0000
15:49 31.4 12.2 31 270 0.6 1.7 1022.6 0.0000 0.0000
16:00 31.4 11.2 29 0 0.6 2.5 1022.4 0.0000 0.0000
16:10 31.4 11.2 29 283 1.1 3.3 1022.3 0.0000 0.0000
16:20 31.5 10.3 27 90 0.3 1.4 1022.1 0.0000 0.0000
16:31 31.5 10.3 27 90 0.3 1.1 1022 0.0000 0.0000
16:42 31.5 11.3 29 90 0.3 1.1 1021.9 0.0000 0.0000
16:51 31.3 10.6 28 90 0.3 1.4 1021.9 0.0000 0.0000
17:01 31.2 11.1 29 60 0.3 0.6 1021.7 0.0000 0.0000
17:05 31.2 11.1 29 56 0.3 1.1 1021.7 0.0000 0.0000
17:15 31.1 11 29 45 0.3 1.4 1021.7 0.0000 0.0000
17:35 30.5 11.5 31 90 0.3 1.1 1021.8 0.0000 0.0000
17:48 30.1 10.6 30 270 0.6 1.7 1021.8 0.0000 0.0000
17:58 29.9 10.5 30 90 0.3 0.6 1021.9 0.0000 0.0000
18:08 29.8 9.3 28 90 0.3 0.6 1021.9 0.0000 0.0000
18:28 29.6 11.2 32 90 0.3 0.6 1021.9 0.0000 0.0000
18:39 29.4 10 30 90 0.3 1.1 1022 0.0000 0.0000
18:48 29.2 10.8 32 90 0.3 1.1 1022.1 0.0000 0.0000
19:11 28.2 15.1 45 106 1.1 2.5 1022.5 0.3030 0.3000
19:32 27.1 17 54 106 1.4 3.1 1022.9 4.3430 4.3000
19:51 26.4 16.6 55 100 1.4 3.3 1023.4 4.3430 4.3000
20:01 26.4 16.3 54 111 1.7 4.4 1023.4 4.3430 4.3000
20:12 26.4 16.6 55 90 1.4 2.8 1023.7 4.0400 4.3000
20:22 26.2 16.7 56 90 1.1 2.8 1024.1 0.8080 4.3000
20:26 26.2 16.7 56 98 1.1 2.5 1024.3 0.0000 4.3000
20:37 26 16.5 56 90 0.6 1.9 1024.3 0.0000 4.3000
20:56 25.7 16.5 57 96 1.4 2.8 1024 0.0000 4.3000
21:06 25.6 16.5 57 90 1.1 1.9 1023.8 0.0000 4.3000
21:17 25.4 15.7 55 90 1.1 2.8 1023.6 0.0000 4.3000
21:26 25.3 15.6 55 74 1.1 1.9 1023.5 0.0000 4.3000
21:36 25.3 15.3 54 80 1.1 2.8 1023.5 0.0000 4.3000
21:47 25.3 15.3 54 90 0.6 2.5 1023.4 0.0000 4.3000
22:02 25.3 15.3 54 90 0.6 1.9 1023.7 0.0000 4.3000
22:12 25.2 14.9 53 90 0.6 1.4 1024.1 0.0000 4.3000
22:22 25.1 15.1 54 90 0.3 1.1 1024 0.0000 4.3000
22:33 25 15.1 54 90 0.3 1.1 1023.9 0.0000 4.3000
22:43 24.8 14.9 54 90 0.3 1.1 1023.9 0.0000 4.3000
22:57 24.6 14.7 54 90 0.3 1.1 1023.9 0.0000 4.3000
23:08 24.4 14.5 54 90 0.6 1.4 1023.9 0.0000 4.3000
23:18 24.2 14 53 90 0.6 1.4 1024 0.0000 4.3000
23:58 22.9 14.2 58 90 0.3 1.1 1023.7 0.0000

DAY STATISTIC

2019-10-23
TEMPERATURE
AVERAGE
22.6
HIGH
31.5
16:20
LOW
13.9
03:31
PRESSURE
AVERAGE
1026.4
HIGH
1030.0
08:26
LOW
1021.7
17:01
DEWPOINT
AVERAGE
13.6
HIGH
17.0
19:32
LOW
9.3
18:08
HUMIDITY
AVERAGE
62
HIGH
87
04:51
LOW
27
16:20
WIND SPEED
AVERAGE
0.5
HIGH
1.7
20:01
WIND GUST
AVERAGE
1.4
HIGH
5.0
14:29
WIND DIRECTION
PREVAILING
E
82.1%
N
0.8
NE
8.9
E
82.1
SE
0.0
S
0.0
SW
0.0
W
4.9
NW
3.3
PRECIPITATION
RAIN HOUR
4.3
RAIN DAY
4.3
TEMPERATURE (°C)
LOW
13.9
HIGH
31.5
AVERAGE
22.6
PRESSURE (hpa)
LOW
1021.7
HIGH
1030.0
AVERAGE
1026.4
DEVICE